Hauptseite
METAR-TAF:

METAR-TAF

Flughäfen :

Militärflugplatz Gilze-Rijen

Gilze-Rijen, Niederlande

Breite: 51-34N, Länge: 004-56E, Höhe: 15 m

Beobachtung

Neuester Wetterbericht von vor 32 Minuten, um 01:55 UTC
Wind 3 kt aus Südwest
Temperatur 14°C
Luftfeuchtigkeit 82%
Luftdruck 1026 hPa
Sichtweite 10 km oder mehr
Geschlossene Wolkendecke in der Höhe von 18000 ft

METAR: EHGR 130155Z AUTO 23003KT 9999 OVC180 14/11 Q1026 BLU

Zeit: 04:27 (02:27 UTC)

Prognose

Neuester Wetterbericht von vor 17 Stunden und 51 Minuten, um 08:36 UTC
Gültige Prognose vom 12 um 09 UTC bis 12 um 21 UTC
Wind 11 kt aus Südwest, Böen bis zu 22 kt
Sichtweite 10 km oder mehr
Leicht bewölkt in der Höhe von 2000 ft
Übergehend zu
vom 12 um 17 UTC bis 12 um 19 UTC
Wind 7 kt aus West/Südwest

TAF: EHGR 120836Z 1209/1221 22011G22KT 9999 FEW020 BECMG 1217/1219 24007KT

Wetterbeobachtungen und Prognosen von mehr als 4000 Flughäfen (METAR und TAF Bericht).

Die verfügbaren Stationen werden durch gelbe und rote Markierungen auf der Karte dargestellt.

Führen Sie die Maus auf sie, um den Namen der Station zu sehen.

Darauf klicken, um die Beobachtung von Wetterbeobachtungen und Prognosen zu sehen.

Um die Karte zu ändern : klicken Sie auf den grünen Tasten mit einem schwarzen Kreuz Zum Vergrößern, auf den grünen Button mit einem Gedankenstrich zu verkleinern, oder auf die grünen Pfeile für benachbarte Karten.


METAR-TAF: